Time;durP1;ratioP1;P1;durP2;ratioP2;P2;SDS_P1;SDS_P2;PMS_P1;PMS_P2;Temp;Humidity;BMP_temperature;BMP_pressure;BME280_temperature;BME280_humidity;BME280_pressure;Samples;Min_cycle;Max_cycle;Signal;HPM_P1;HPM_P2
2023/12/07 00:01:13;;;;;;;13.65;6.30;;;2.60;99.90;;;;;;4122690;28;20138;-79
2023/12/07 00:03:15;;;;;;;10.13;5.55;;;3.80;99.90;;;;;;4123367;28;20046;-79
2023/12/07 00:05:15;;;;;;;10.02;5.82;;;2.90;99.90;;;;;;4120994;28;20043;-79
2023/12/07 00:07:17;;;;;;;12.10;5.55;;;4.20;99.90;;;;;;4122012;28;20169;-79
2023/12/07 00:09:18;;;;;;;10.07;5.82;;;2.90;99.90;;;;;;4123105;28;20085;-79
2023/12/07 00:11:18;;;;;;;11.95;5.95;;;2.90;99.90;;;;;;4122958;28;20043;-79
2023/12/07 00:13:19;;;;;;;12.52;5.85;;;2.90;99.90;;;;;;4123054;28;20107;-79
2023/12/07 00:15:20;;;;;;;11.65;5.80;;;3.20;99.90;;;;;;4122084;28;20517;-79
2023/12/07 00:17:22;;;;;;;10.88;6.25;;;2.90;99.90;;;;;;4121706;28;20066;-79
2023/12/07 00:19:24;;;;;;;11.25;6.03;;;2.90;99.90;;;;;;4122184;28;20129;-79
2023/12/07 00:21:25;;;;;;;11.57;5.82;;;2.90;99.90;;;;;;4122118;28;20498;-79
2023/12/07 00:23:25;;;;;;;9.40;5.60;;;3.80;99.90;;;;;;4122140;28;20050;-79
2023/12/07 00:25:26;;;;;;;13.43;5.60;;;3.00;99.90;;;;;;4122101;28;20038;-79
2023/12/07 00:27:27;;;;;;;14.02;6.25;;;3.00;99.90;;;;;;4122837;28;20157;-79
2023/12/07 00:29:30;;;;;;;12.07;6.03;;;3.00;99.90;;;;;;4121902;28;20042;-79
2023/12/07 00:31:31;;;;;;;17.77;6.88;;;3.80;99.90;;;;;;4121901;28;20121;-79
2023/12/07 00:33:32;;;;;;;10.70;5.57;;;4.60;99.90;;;;;;4122489;28;20058;-79
2023/12/07 00:35:33;;;;;;;9.45;5.38;;;3.00;99.90;;;;;;4121017;28;20050;-79
2023/12/07 00:37:33;;;;;;;12.07;6.25;;;3.00;99.90;;;;;;4121934;28;20043;-79
2023/12/07 00:39:34;;;;;;;9.07;5.75;;;4.40;99.90;;;;;;4122559;28;20463;-79
2023/12/07 00:41:35;;;;;;;13.23;5.13;;;3.00;99.90;;;;;;4121800;28;20105;-80
2023/12/07 00:43:36;;;;;;;10.65;6.03;;;2.90;99.90;;;;;;4121644;28;20075;-80
2023/12/07 00:45:37;;;;;;;11.65;5.70;;;4.10;99.90;;;;;;4122023;28;20042;-80
2023/12/07 00:47:39;;;;;;;13.45;5.80;;;2.90;99.90;;;;;;4120420;28;20121;-80
2023/12/07 00:49:41;;;;;;;9.50;5.43;;;2.90;99.90;;;;;;4121727;28;20073;-80
2023/12/07 00:51:43;;;;;;;12.57;5.78;;;2.90;99.90;;;;;;4121227;28;20051;-80
2023/12/07 00:53:43;;;;;;;11.60;5.60;;;3.70;99.90;;;;;;4121926;28;20042;-80
2023/12/07 00:55:46;;;;;;;9.98;5.40;;;2.90;99.90;;;;;;4121466;28;20606;-80
2023/12/07 00:57:46;;;;;;;12.27;6.38;;;3.20;99.90;;;;;;4121396;28;20097;-80
2023/12/07 00:59:47;;;;;;;14.48;5.45;;;2.90;99.90;;;;;;4121514;28;20488;-80
2023/12/07 01:01:49;;;;;;;9.63;5.50;;;2.90;99.90;;;;;;4122015;28;20043;-80
2023/12/07 01:03:49;;;;;;;10.77;5.35;;;2.90;99.90;;;;;;4120579;28;20047;-80
2023/12/07 01:05:52;;;;;;;10.25;5.78;;;2.90;99.90;;;;;;4121925;28;20046;-78
2023/12/07 01:07:53;;;;;;;10.02;5.50;;;2.90;99.90;;;;;;4122021;28;20066;-78
2023/12/07 01:09:55;;;;;;;12.63;5.72;;;2.90;99.90;;;;;;4121829;28;20047;-78
2023/12/07 01:11:57;;;;;;;11.63;5.68;;;2.90;99.90;;;;;;4121483;28;20440;-78
2023/12/07 01:13:58;;;;;;;11.00;5.93;;;3.90;99.90;;;;;;4121656;28;20125;-78
2023/12/07 01:15:59;;;;;;;12.98;6.32;;;3.20;99.90;;;;;;4121634;28;20054;-78
2023/12/07 01:18:00;;;;;;;9.02;5.40;;;2.40;99.90;;;;;;4121274;28;20049;-78
2023/12/07 01:20:03;;;;;;;10.02;5.65;;;2.80;99.90;;;;;;4121140;28;20058;-78
2023/12/07 01:22:06;;;;;;;9.23;5.55;;;2.80;99.90;;;;;;4121539;28;20038;-80
2023/12/07 01:24:07;;;;;;;9.95;5.60;;;2.90;99.90;;;;;;4120564;28;20046;-80
2023/12/07 01:26:09;;;;;;;12.68;5.60;;;3.40;99.90;;;;;;4121176;28;20035;-80
2023/12/07 01:28:11;;;;;;;11.50;5.40;;;2.90;99.90;;;;;;4120794;28;20047;-80
2023/12/07 01:30:11;;;;;;;9.95;5.47;;;2.90;99.90;;;;;;4120791;28;20050;-80
2023/12/07 01:32:14;;;;;;;9.82;4.90;;;2.90;99.90;;;;;;4120889;28;20046;-80
2023/12/07 01:34:17;;;;;;;9.43;5.25;;;2.90;99.90;;;;;;4121127;28;20385;-77
2023/12/07 01:36:21;;;;;;;13.02;5.82;;;3.90;99.90;;;;;;4121465;28;20122;-77
2023/12/07 01:38:22;;;;;;;11.05;5.20;;;2.90;99.90;;;;;;4121928;28;20047;-77
2023/12/07 01:40:22;;;;;;;10.30;5.25;;;2.80;99.90;;;;;;4121936;28;20043;-79
2023/12/07 01:42:23;;;;;;;12.20;5.85;;;3.60;99.90;;;;;;4120809;28;20118;-79
2023/12/07 01:44:27;;;;;;;10.48;4.93;;;2.80;99.90;;;;;;4121069;28;20039;-78
2023/12/07 01:46:28;;;;;;;9.93;5.40;;;2.90;99.90;;;;;;4120800;28;20050;-79
2023/12/07 01:48:30;;;;;;;8.98;5.32;;;2.80;99.90;;;;;;4120987;28;20050;-79
2023/12/07 01:50:31;;;;;;;9.27;5.13;;;2.80;99.90;;;;;;4119219;28;20070;-79
2023/12/07 01:52:32;;;;;;;9.98;5.35;;;2.80;99.90;;;;;;4120941;28;20054;-79
2023/12/07 01:54:33;;;;;;;8.15;5.30;;;2.90;99.90;;;;;;4121155;28;20380;-79
2023/12/07 01:56:34;;;;;;;13.98;5.95;;;2.80;99.90;;;;;;4121017;28;20051;-79
2023/12/07 01:58:37;;;;;;;7.95;4.55;;;2.60;99.90;;;;;;4121067;28;20376;-78
2023/12/07 02:00:38;;;;;;;10.38;5.32;;;3.00;99.90;;;;;;4121037;28;20042;-79
2023/12/07 02:02:41;;;;;;;9.02;4.55;;;2.80;99.90;;;;;;4120611;28;20506;-79
2023/12/07 02:04:43;;;;;;;12.38;5.60;;;2.80;99.90;;;;;;4121480;28;20051;-79
2023/12/07 02:06:44;;;;;;;10.65;5.30;;;2.90;99.90;;;;;;4120888;28;20054;-79
2023/12/07 02:08:45;;;;;;;13.65;5.68;;;2.80;99.90;;;;;;4120990;28;20038;-79
2023/12/07 02:10:46;;;;;;;12.00;4.20;;;2.80;99.90;;;;;;4121130;28;20043;-79
2023/12/07 02:12:48;;;;;;;10.77;5.00;;;2.80;99.90;;;;;;4121615;28;20105;-78
2023/12/07 02:14:51;;;;;;;8.18;5.05;;;3.40;99.90;;;;;;4120506;28;20067;-79
2023/12/07 02:17:01;;;;;;;11.68;5.10;;;2.80;99.90;;;;;;4121467;28;20130;-79
2023/12/07 02:19:18;;;;;;;8.93;4.80;;;3.60;99.90;;;;;;4121213;28;20043;-79
2023/12/07 02:21:30;;;;;;;12.75;6.47;;;3.00;99.90;;;;;;4120697;28;20043;-79
2023/12/07 02:23:34;;;;;;;9.05;4.88;;;3.00;99.90;;;;;;4120979;28;20133;-79
2023/12/07 02:25:37;;;;;;;10.55;5.70;;;2.80;99.90;;;;;;4120314;28;20094;-79
2023/12/07 02:27:42;;;;;;;12.85;5.70;;;2.70;99.90;;;;;;4122166;28;20042;-79
2023/12/07 02:29:43;;;;;;;9.43;5.18;;;2.70;99.90;;;;;;4120321;28;20051;-79
2023/12/07 02:31:46;;;;;;;8.52;5.03;;;2.70;99.90;;;;;;4120881;28;20459;-79
2023/12/07 02:33:47;;;;;;;10.30;5.28;;;2.70;99.90;;;;;;4120747;28;20160;-79
2023/12/07 02:35:47;;;;;;;8.65;4.65;;;3.80;99.90;;;;;;4120298;28;20042;-79
2023/12/07 02:37:50;;;;;;;10.80;4.55;;;2.90;99.90;;;;;;4120612;28;20050;-79
2023/12/07 02:39:54;;;;;;;13.05;5.05;;;2.80;99.90;;;;;;4120435;28;20042;-79
2023/12/07 02:41:56;;;;;;;8.40;4.38;;;2.80;99.90;;;;;;4120614;28;20042;-79
2023/12/07 02:43:58;;;;;;;9.85;5.00;;;3.20;99.90;;;;;;4120078;28;20102;-79
2023/12/07 02:45:59;;;;;;;10.90;5.60;;;3.00;99.90;;;;;;4120763;28;20085;-79
2023/12/07 02:48:01;;;;;;;7.03;4.43;;;3.80;99.90;;;;;;4120910;28;20043;-79
2023/12/07 02:50:04;;;;;;;14.23;6.53;;;2.70;99.90;;;;;;4120213;28;20074;-79
2023/12/07 02:52:05;;;;;;;9.50;4.85;;;2.70;99.90;;;;;;4120727;28;20530;-79
2023/12/07 02:54:05;;;;;;;9.43;4.85;;;2.70;99.90;;;;;;4120722;28;20082;-79
2023/12/07 02:56:07;;;;;;;10.00;5.47;;;2.70;99.90;;;;;;4120725;28;20110;-79
2023/12/07 02:58:07;;;;;;;8.07;4.68;;;2.70;99.90;;;;;;4120236;28;20187;-79
2023/12/07 03:00:09;;;;;;;10.23;5.32;;;2.40;99.90;;;;;;4120101;28;20111;-79
2023/12/07 03:02:11;;;;;;;10.50;4.60;;;2.70;99.90;;;;;;4120063;28;20051;-79
2023/12/07 03:04:13;;;;;;;10.15;4.65;;;2.70;99.90;;;;;;4120438;28;20050;-79
2023/12/07 03:06:16;;;;;;;11.93;5.60;;;2.70;99.90;;;;;;4120190;28;20060;-79
2023/12/07 03:08:16;;;;;;;11.27;5.07;;;2.70;99.90;;;;;;4119736;28;20051;-79
2023/12/07 03:10:20;;;;;;;8.90;5.20;;;2.70;99.90;;;;;;4120093;28;20061;-78
2023/12/07 03:12:21;;;;;;;11.40;5.18;;;2.70;99.90;;;;;;4120605;28;20448;-79
2023/12/07 03:14:24;;;;;;;8.95;4.97;;;2.70;99.90;;;;;;4119157;28;20054;-79
2023/12/07 03:16:25;;;;;;;11.52;5.18;;;2.70;99.90;;;;;;4120134;28;20130;-79
2023/12/07 03:18:26;;;;;;;9.60;4.47;;;2.70;99.90;;;;;;4119773;28;20054;-79
2023/12/07 03:20:27;;;;;;;10.00;4.45;;;2.70;99.90;;;;;;4119930;28;20042;-79
2023/12/07 03:22:28;;;;;;;8.00;4.38;;;2.70;99.90;;;;;;4119696;28;20529;-79
2023/12/07 03:24:30;;;;;;;9.00;5.15;;;2.70;99.90;;;;;;4119456;28;20035;-79
2023/12/07 03:26:34;;;;;;;8.18;4.47;;;2.70;99.90;;;;;;4119888;28;20053;-79
2023/12/07 03:28:37;;;;;;;7.05;4.20;;;2.90;99.90;;;;;;4120729;28;20042;-79
2023/12/07 03:30:40;;;;;;;7.85;4.63;;;2.70;99.90;;;;;;4119334;28;20042;-79
2023/12/07 03:32:40;;;;;;;11.80;4.97;;;2.70;99.90;;;;;;4119852;28;20050;-79
2023/12/07 03:34:41;;;;;;;8.48;4.63;;;2.70;99.90;;;;;;4119355;28;20513;-79
2023/12/07 03:36:46;;;;;;;7.53;4.28;;;4.10;99.90;;;;;;4119587;28;20121;-79
2023/12/07 03:38:48;;;;;;;13.43;4.57;;;2.70;99.90;;;;;;4119094;28;20503;-79
2023/12/07 03:40:50;;;;;;;8.98;4.80;;;2.70;99.90;;;;;;4119761;28;20050;-79
2023/12/07 03:42:51;;;;;;;8.05;4.28;;;2.80;99.90;;;;;;4119507;28;20049;-79
2023/12/07 03:44:51;;;;;;;12.73;4.72;;;2.80;99.90;;;;;;4119315;28;20039;-79
2023/12/07 03:46:53;;;;;;;9.07;4.65;;;2.80;99.90;;;;;;4119160;28;20464;-79
2023/12/07 03:48:55;;;;;;;9.00;4.30;;;3.90;99.90;;;;;;4119346;28;20058;-79
2023/12/07 03:50:57;;;;;;;8.43;4.95;;;4.00;99.90;;;;;;4119559;28;20046;-79
2023/12/07 03:52:59;;;;;;;11.77;4.55;;;3.50;99.90;;;;;;4119249;28;20042;-78
2023/12/07 03:55:01;;;;;;;8.35;4.47;;;2.50;99.90;;;;;;4119001;28;20137;-78
2023/12/07 03:57:02;;;;;;;7.20;3.88;;;2.30;99.90;;;;;;4118973;28;20089;-79
2023/12/07 03:59:03;;;;;;;7.68;4.45;;;2.80;99.90;;;;;;4118153;28;20043;-79
2023/12/07 04:01:05;;;;;;;7.82;4.63;;;2.80;99.90;;;;;;4118965;28;20126;-78
2023/12/07 04:03:06;;;;;;;10.02;4.55;;;2.80;99.90;;;;;;4119088;28;20042;-78
2023/12/07 04:05:07;;;;;;;7.95;3.80;;;2.60;99.90;;;;;;4119111;28;20129;-78
2023/12/07 04:07:07;;;;;;;9.68;4.00;;;2.80;99.90;;;;;;4118778;28;20043;-78
2023/12/07 04:09:10;;;;;;;6.70;3.58;;;2.80;99.90;;;;;;4118430;28;20078;-78
2023/12/07 04:11:11;;;;;;;8.07;3.97;;;2.80;99.90;;;;;;4118302;28;20082;-78
2023/12/07 04:13:11;;;;;;;7.55;4.03;;;2.80;99.90;;;;;;4117676;28;20063;-78
2023/12/07 04:15:13;;;;;;;7.88;3.70;;;2.80;99.90;;;;;;4118231;28;20057;-78
2023/12/07 04:17:14;;;;;;;7.95;3.88;;;2.90;99.90;;;;;;4133034;28;20041;-78
2023/12/07 04:19:15;;;;;;;7.97;4.25;;;2.80;99.90;;;;;;4118874;28;20047;-79
2023/12/07 04:21:17;;;;;;;9.63;4.10;;;2.90;99.90;;;;;;4119241;28;20119;-78
2023/12/07 04:23:18;;;;;;;9.30;3.88;;;2.90;99.90;;;;;;4120826;28;20046;-77
2023/12/07 04:25:18;;;;;;;8.93;4.00;;;2.90;99.90;;;;;;4126588;28;20046;-79
2023/12/07 04:27:19;;;;;;;9.38;3.90;;;2.90;99.90;;;;;;4121346;28;20050;-79
2023/12/07 04:29:20;;;;;;;10.27;3.78;;;2.90;99.90;;;;;;4120838;28;20031;-79
2023/12/07 04:31:21;;;;;;;10.15;4.22;;;2.90;99.90;;;;;;4119251;28;20082;-79
2023/12/07 04:33:22;;;;;;;6.78;3.90;;;2.90;99.90;;;;;;4121063;28;20509;-79
2023/12/07 04:35:24;;;;;;;6.93;3.47;;;2.90;99.90;;;;;;4120971;28;20074;-80
2023/12/07 04:37:25;;;;;;;6.57;4.03;;;2.90;99.90;;;;;;4120699;28;20049;-79
2023/12/07 04:39:25;;;;;;;8.43;4.60;;;2.90;99.90;;;;;;4119631;28;20074;-80
2023/12/07 04:41:27;;;;;;;7.03;3.47;;;2.90;99.90;;;;;;4122338;28;20047;-79
2023/12/07 04:43:28;;;;;;;8.68;3.60;;;2.90;99.90;;;;;;4122114;28;20046;-79
2023/12/07 04:45:28;;;;;;;7.75;3.72;;;2.90;99.90;;;;;;4121211;28;20061;-79
2023/12/07 04:47:31;;;;;;;12.48;4.63;;;3.60;99.90;;;;;;4121363;28;20054;-79
2023/12/07 04:49:32;;;;;;;10.10;4.22;;;2.90;99.90;;;;;;4121945;28;20050;-80
2023/12/07 04:51:32;;;;;;;8.45;4.45;;;2.90;99.90;;;;;;4121762;28;20042;-80
2023/12/07 04:53:34;;;;;;;6.35;3.60;;;3.40;99.90;;;;;;4121644;28;20101;-80
2023/12/07 04:55:36;;;;;;;10.52;4.30;;;3.50;99.90;;;;;;4121334;28;20053;-80
2023/12/07 04:57:38;;;;;;;8.18;4.55;;;2.50;99.90;;;;;;4121695;28;20054;-79
2023/12/07 04:59:39;;;;;;;7.20;4.10;;;3.80;99.90;;;;;;4121339;28;20057;-80
2023/12/07 05:01:40;;;;;;;6.20;3.90;;;2.90;99.90;;;;;;4121366;28;20122;-79
2023/12/07 05:03:40;;;;;;;10.65;4.32;;;2.90;99.90;;;;;;4121881;28;20471;-79
2023/12/07 05:05:41;;;;;;;10.70;4.50;;;2.90;99.90;;;;;;4121509;28;20042;-80
2023/12/07 05:07:42;;;;;;;7.10;3.67;;;3.00;99.90;;;;;;4121572;28;20043;-80
2023/12/07 05:09:43;;;;;;;9.95;4.18;;;2.90;99.90;;;;;;4121184;28;20062;-80
2023/12/07 05:11:45;;;;;;;7.05;3.85;;;2.90;99.90;;;;;;4120905;28;20476;-80
2023/12/07 05:13:46;;;;;;;7.38;3.72;;;2.90;99.90;;;;;;4118902;28;20085;-80
2023/12/07 05:15:47;;;;;;;10.88;5.25;;;2.80;99.90;;;;;;4121551;28;20135;-80
2023/12/07 05:17:48;;;;;;;10.82;4.03;;;3.10;99.90;;;;;;4121343;28;20073;-80
2023/12/07 05:19:49;;;;;;;8.15;3.72;;;2.90;99.90;;;;;;4121596;28;20039;-80
2023/12/07 05:21:49;;;;;;;11.65;4.78;;;2.80;99.90;;;;;;4122334;28;20043;-80
2023/12/07 05:23:51;;;;;;;7.13;4.38;;;2.80;99.90;;;;;;4121571;28;20039;-80
2023/12/07 05:25:54;;;;;;;7.75;4.38;;;3.20;99.90;;;;;;4121272;28;20046;-80
2023/12/07 05:28:01;;;;;;;8.52;4.35;;;2.70;99.90;;;;;;4122337;28;20042;-80
2023/12/07 05:30:05;;;;;;;8.45;4.00;;;2.70;99.90;;;;;;4121777;28;20035;-80
2023/12/07 05:32:07;;;;;;;7.30;3.88;;;2.70;99.90;;;;;;4122170;28;20042;-80
2023/12/07 05:34:08;;;;;;;11.63;4.05;;;2.70;99.90;;;;;;4122378;28;20057;-80
2023/12/07 05:36:09;;;;;;;7.60;4.78;;;2.70;99.90;;;;;;4122364;28;20055;-80
2023/12/07 05:38:11;;;;;;;10.13;4.50;;;2.70;99.90;;;;;;4122403;28;20078;-79
2023/12/07 05:40:13;;;;;;;8.35;4.30;;;2.70;99.90;;;;;;4122773;28;20047;-80
2023/12/07 05:42:15;;;;;;;9.30;4.30;;;2.50;99.90;;;;;;4122664;28;20105;-80
2023/12/07 05:44:21;;;;;;;6.47;3.97;;;2.60;99.90;;;;;;4122706;28;20514;-79
2023/12/07 05:46:22;;;;;;;10.43;4.53;;;2.60;99.90;;;;;;4122501;28;20047;-79
2023/12/07 05:48:23;;;;;;;9.32;3.90;;;2.60;99.90;;;;;;4122701;28;20526;-79
2023/12/07 05:50:24;;;;;;;8.95;4.45;;;2.60;99.90;;;;;;4122247;28;20050;-79
2023/12/07 05:52:32;;;;;;;8.93;4.85;;;2.70;99.90;;;;;;4122458;28;20047;-79
2023/12/07 05:54:32;;;;;;;10.10;4.82;;;2.90;99.90;;;;;;4122472;28;20178;-79
2023/12/07 05:56:35;;;;;;;9.98;4.15;;;2.60;99.90;;;;;;4116140;28;20051;-79
2023/12/07 05:58:37;;;;;;;12.27;5.53;;;2.80;99.90;;;;;;4122579;28;20118;-79
2023/12/07 06:00:39;;;;;;;7.38;3.97;;;2.60;99.90;;;;;;4121687;28;20065;-79
2023/12/07 06:02:40;;;;;;;7.25;3.97;;;2.60;99.90;;;;;;4122651;28;20557;-79
2023/12/07 06:04:41;;;;;;;8.20;5.10;;;3.00;99.90;;;;;;4122351;28;20046;-80
2023/12/07 06:06:42;;;;;;;7.70;4.47;;;2.60;99.90;;;;;;4121835;28;20047;-79
2023/12/07 06:08:44;;;;;;;9.02;4.63;;;3.70;99.90;;;;;;4122370;28;20042;-78
2023/12/07 06:10:46;;;;;;;8.73;4.47;;;2.50;99.90;;;;;;4122628;28;20053;-78
2023/12/07 06:12:47;;;;;;;9.88;4.90;;;2.50;99.90;;;;;;4122503;28;20055;-78
2023/12/07 06:14:50;;;;;;;8.27;4.82;;;2.50;99.90;;;;;;4121511;28;20051;-78
2023/12/07 06:16:51;;;;;;;11.10;5.50;;;3.40;99.90;;;;;;4122563;28;20118;-77
2023/12/07 06:18:52;;;;;;;9.77;4.95;;;2.50;99.90;;;;;;4121946;28;20046;-78
2023/12/07 06:20:54;;;;;;;8.80;4.93;;;2.50;99.90;;;;;;4122605;28;20035;-78
2023/12/07 06:22:55;;;;;;;14.98;4.50;;;2.50;99.90;;;;;;4121460;28;20076;-78
2023/12/07 06:24:56;;;;;;;11.10;5.50;;;2.50;99.90;;;;;;4121735;28;20042;-78
2023/12/07 06:26:57;;;;;;;9.05;4.78;;;2.50;99.90;;;;;;4119778;28;20074;-79
2023/12/07 06:29:00;;;;;;;10.88;5.25;;;2.50;99.90;;;;;;4120836;28;20472;-78
2023/12/07 06:31:07;;;;;;;10.38;5.63;;;2.50;99.90;;;;;;4121905;28;20094;-78
2023/12/07 06:33:07;;;;;;;10.90;5.10;;;2.40;99.90;;;;;;4121592;28;20480;-78
2023/12/07 06:35:12;;;;;;;12.02;6.45;;;2.40;99.90;;;;;;4122598;28;20043;-79
2023/12/07 06:37:14;;;;;;;12.05;5.30;;;2.40;99.90;;;;;;4121667;28;20125;-78
2023/12/07 06:39:15;;;;;;;11.95;5.88;;;2.40;99.90;;;;;;4123008;28;20043;-78
2023/12/07 06:41:16;;;;;;;12.15;5.63;;;2.40;99.90;;;;;;4138034;28;20069;-78
2023/12/07 06:43:17;;;;;;;11.50;5.63;;;2.40;99.90;;;;;;4121709;28;20050;-79
2023/12/07 06:45:17;;;;;;;10.05;5.07;;;2.40;99.90;;;;;;4122471;28;20047;-79
2023/12/07 06:47:19;;;;;;;10.43;5.50;;;2.40;99.90;;;;;;4122433;28;20173;-79
2023/12/07 06:49:21;;;;;;;10.93;5.25;;;2.40;99.90;;;;;;4121537;28;20047;-79
2023/12/07 06:51:22;;;;;;;10.20;5.05;;;2.40;99.90;;;;;;4120822;28;20551;-79
2023/12/07 06:53:23;;;;;;;10.40;5.32;;;2.40;99.90;;;;;;4121385;28;20042;-78
2023/12/07 06:55:24;;;;;;;11.23;5.60;;;2.40;99.90;;;;;;4122156;28;20046;-78
2023/12/07 06:57:25;;;;;;;14.57;5.82;;;2.40;99.90;;;;;;4123392;28;20165;-78
2023/12/07 06:59:28;;;;;;;9.75;5.63;;;2.40;99.90;;;;;;4123694;28;20125;-79
2023/12/07 07:01:30;;;;;;;11.80;5.30;;;2.40;99.90;;;;;;4122781;28;20515;-79
2023/12/07 07:03:32;;;;;;;7.95;4.40;;;3.50;99.90;;;;;;4122739;28;20081;-79
2023/12/07 07:05:33;;;;;;;10.15;5.60;;;2.40;99.90;;;;;;4123472;28;20050;-79
2023/12/07 07:07:34;;;;;;;11.00;5.45;;;2.40;99.90;;;;;;4123736;28;20484;-78
2023/12/07 07:09:34;;;;;;;12.48;5.55;;;2.50;99.90;;;;;;4123868;28;20058;-78
2023/12/07 07:11:41;;;;;;;9.93;5.47;;;2.50;99.90;;;;;;4124992;28;20039;-78
2023/12/07 07:13:42;;;;;;;10.15;4.82;;;2.70;99.90;;;;;;4124871;28;20460;-78
2023/12/07 07:15:44;;;;;;;10.20;5.18;;;2.50;99.90;;;;;;4123334;28;20074;-78
2023/12/07 07:17:46;;;;;;;9.88;4.57;;;2.40;99.90;;;;;;4126441;28;20050;-78
2023/12/07 07:19:47;;;;;;;16.92;6.30;;;2.50;99.90;;;;;;4130232;28;20048;-78
2023/12/07 07:21:49;;;;;;;11.30;5.18;;;2.50;99.90;;;;;;4123654;28;20125;-78
2023/12/07 07:23:51;;;;;;;12.20;5.20;;;2.50;99.90;;;;;;4122838;28;20042;-78
2023/12/07 07:25:51;;;;;;;10.20;5.03;;;2.50;99.90;;;;;;4125846;28;20093;-78
2023/12/07 07:27:54;;;;;;;12.10;5.22;;;2.50;99.90;;;;;;4127141;28;20050;-78
2023/12/07 07:29:55;;;;;;;9.63;5.18;;;2.50;99.90;;;;;;4123969;28;20051;-78
2023/12/07 07:31:57;;;;;;;12.23;5.75;;;2.50;99.90;;;;;;4123297;28;20051;-78
2023/12/07 07:33:58;;;;;;;9.05;4.63;;;2.60;99.90;;;;;;4121304;28;20047;-78
2023/12/07 07:35:59;;;;;;;9.90;5.40;;;2.50;99.90;;;;;;4123617;28;20049;-78
2023/12/07 07:38:00;;;;;;;10.20;5.38;;;2.60;99.90;;;;;;4123906;28;20407;-78
2023/12/07 07:40:06;;;;;;;10.57;5.78;;;2.60;99.90;;;;;;4122725;28;20038;-79
2023/12/07 07:42:07;;;;;;;12.75;5.57;;;2.60;99.90;;;;;;4121029;28;20051;-79
2023/12/07 07:44:14;;;;;;;10.73;5.63;;;2.60;99.90;;;;;;4121421;28;20053;-78
2023/12/07 07:46:15;;;;;;;11.02;5.38;;;2.60;99.90;;;;;;4121562;28;20046;-78
2023/12/07 07:48:16;;;;;;;11.07;5.63;;;2.60;99.90;;;;;;4120283;28;20046;-78
2023/12/07 07:50:17;;;;;;;12.10;5.70;;;3.70;99.90;;;;;;4119444;28;20047;-79
2023/12/07 07:52:18;;;;;;;10.70;5.03;;;2.60;99.90;;;;;;4119893;28;20089;-79
2023/12/07 07:54:19;;;;;;;9.45;5.00;;;3.50;99.90;;;;;;4121252;28;20051;-79
2023/12/07 07:56:23;;;;;;;10.60;5.30;;;2.70;99.90;;;;;;4121440;28;20043;-79
2023/12/07 07:58:24;;;;;;;12.07;5.47;;;4.00;99.90;;;;;;4121939;28;20047;-79
2023/12/07 08:00:25;;;;;;;10.43;4.95;;;2.70;99.90;;;;;;4120917;28;20070;-79
2023/12/07 08:02:27;;;;;;;10.40;5.22;;;2.60;99.90;;;;;;4120921;28;20047;-79
2023/12/07 08:04:28;;;;;;;11.07;5.68;;;2.70;99.90;;;;;;4120756;28;20109;-79
2023/12/07 08:06:29;;;;;;;11.82;5.10;;;2.70;99.90;;;;;;4120866;28;20047;-79
2023/12/07 08:08:29;;;;;;;15.32;5.53;;;2.70;99.90;;;;;;4120962;28;20039;-79
2023/12/07 08:10:31;;;;;;;15.00;6.35;;;4.10;99.90;;;;;;4120415;28;20065;-79
2023/12/07 08:12:33;;;;;;;10.80;5.13;;;2.80;99.90;;;;;;4118484;28;20110;-79
2023/12/07 08:14:35;;;;;;;11.50;5.47;;;2.70;99.90;;;;;;4122737;28;20054;-79
2023/12/07 08:16:36;;;;;;;12.98;6.10;;;2.70;99.90;;;;;;4123348;28;20455;-79
2023/12/07 08:18:37;;;;;;;9.90;5.47;;;2.80;99.90;;;;;;4120463;28;20105;-79
2023/12/07 08:20:44;;;;;;;11.52;5.97;;;2.40;99.90;;;;;;4122944;28;20050;-79
2023/12/07 08:22:45;;;;;;;12.40;5.55;;;2.80;99.90;;;;;;4123137;28;20046;-79
2023/12/07 08:24:47;;;;;;;12.05;6.28;;;2.80;99.90;;;;;;4122813;28;20051;-81
2023/12/07 08:26:49;;;;;;;15.48;6.45;;;2.80;99.90;;;;;;4122479;28;20063;-80
2023/12/07 08:28:50;;;;;;;14.70;6.80;;;2.80;99.90;;;;;;4121433;28;20078;-80
2023/12/07 08:30:50;;;;;;;12.48;5.82;;;2.70;99.90;;;;;;4122451;28;20102;-80
2023/12/07 08:32:51;;;;;;;11.45;6.40;;;2.90;99.90;;;;;;4123440;28;20039;-80
2023/12/07 08:34:52;;;;;;;13.75;6.60;;;2.90;99.90;;;;;;4122905;28;20401;-81
2023/12/07 08:36:53;;;;;;;15.13;5.88;;;3.00;99.90;;;;;;4122205;28;20045;-80
2023/12/07 08:38:55;;;;;;;11.75;5.65;;;3.00;99.90;;;;;;4123142;28;20047;-80
2023/12/07 08:40:57;;;;;;;10.95;5.28;;;3.00;99.90;;;;;;4123212;28;20057;-81
2023/12/07 08:42:58;;;;;;;10.93;5.80;;;3.60;99.90;;;;;;4123390;28;20046;-80
2023/12/07 08:45:00;;;;;;;16.13;6.25;;;3.50;99.90;;;;;;4122681;28;20046;-80
2023/12/07 08:47:03;;;;;;;15.30;7.05;;;3.80;99.90;;;;;;4122151;28;20043;-80
2023/12/07 08:49:04;;;;;;;14.43;5.68;;;3.10;99.90;;;;;;4123376;28;20039;-80
2023/12/07 08:51:05;;;;;;;13.85;6.38;;;3.10;99.90;;;;;;4123075;28;20047;-81
2023/12/07 08:53:06;;;;;;;13.90;6.65;;;3.10;99.90;;;;;;4130697;28;20649;-81
2023/12/07 08:55:07;;;;;;;14.52;6.15;;;3.30;99.90;;;;;;4125267;28;20046;-80
2023/12/07 08:57:08;;;;;;;13.40;6.25;;;3.10;99.90;;;;;;4122844;28;20384;-80
2023/12/07 08:59:09;;;;;;;13.27;6.30;;;3.20;99.90;;;;;;4122616;28;20551;-80
2023/12/07 09:01:11;;;;;;;15.52;6.32;;;3.20;99.90;;;;;;4122396;28;20053;-80
2023/12/07 09:03:17;;;;;;;15.65;6.18;;;3.20;99.90;;;;;;4122996;28;20046;-80
2023/12/07 09:05:19;;;;;;;14.40;7.40;;;3.50;99.90;;;;;;4122479;28;20050;-81
2023/12/07 09:07:21;;;;;;;12.18;6.53;;;3.90;99.90;;;;;;4121787;28;20093;-81
2023/12/07 09:09:23;;;;;;;13.55;6.25;;;4.90;99.90;;;;;;4121629;28;20126;-81
2023/12/07 09:11:24;;;;;;;13.57;5.78;;;7.00;99.90;;;;;;4120131;28;20043;-81
2023/12/07 09:13:25;;;;;;;11.73;6.25;;;7.20;99.90;;;;;;4120130;28;20097;-81
2023/12/07 09:15:27;;;;;;;11.98;5.82;;;7.00;99.90;;;;;;4119230;28;20058;-82
2023/12/07 09:17:29;;;;;;;10.73;5.82;;;8.10;99.90;;;;;;4119259;28;20038;-81
2023/12/07 09:19:30;;;;;;;10.73;5.00;;;;;;;;;;4119166;28;20049;-80
2023/12/07 09:21:31;;;;;;;9.50;5.70;;;;;;;;;;4117482;28;20043;-80
2023/12/07 09:23:31;;;;;;;10.85;5.70;;;9.10;99.90;;;;;;4119256;28;20078;-80
2023/12/07 09:25:32;;;;;;;11.10;4.97;;;11.00;99.90;;;;;;4117967;28;20047;-81
2023/12/07 09:27:34;;;;;;;12.63;5.93;;;11.30;99.90;;;;;;4119550;28;20057;-80
2023/12/07 09:29:36;;;;;;;10.55;5.13;;;11.50;99.90;;;;;;4118873;28;20042;-80
2023/12/07 09:31:37;;;;;;;11.27;5.00;;;11.70;99.90;;;;;;4118762;28;20050;-80
2023/12/07 09:33:38;;;;;;;9.60;5.18;;;12.00;99.90;;;;;;4118754;28;20046;-80
2023/12/07 09:35:39;;;;;;;12.77;5.43;;;12.20;99.90;;;;;;4119640;28;20051;-80
2023/12/07 09:37:40;;;;;;;11.60;5.68;;;12.20;99.90;;;;;;4119310;28;20399;-82
2023/12/07 09:39:41;;;;;;;13.38;5.88;;;12.10;99.90;;;;;;4118630;28;20057;-81
2023/12/07 09:41:46;;;;;;;17.48;6.63;;;11.80;99.90;;;;;;4118949;28;20042;-80
2023/12/07 09:43:47;;;;;;;8.95;5.50;;;11.90;99.90;;;;;;4118565;28;20043;-80
2023/12/07 09:45:48;;;;;;;12.27;5.43;;;11.90;99.90;;;;;;4116966;28;20178;-80
2023/12/07 09:47:51;;;;;;;9.23;5.80;;;11.80;99.90;;;;;;4116610;28;20380;-80
2023/12/07 09:49:52;;;;;;;10.70;6.10;;;11.50;99.90;;;;;;4117184;28;20150;-80
2023/12/07 09:51:54;;;;;;;12.10;5.60;;;11.10;99.90;;;;;;4117215;28;20038;-80
2023/12/07 09:53:55;;;;;;;12.20;5.90;;;10.60;99.90;;;;;;4117200;28;20191;-81
2023/12/07 09:55:55;;;;;;;11.05;6.40;;;10.20;99.90;;;;;;4116883;28;20084;-80
2023/12/07 09:57:58;;;;;;;9.85;5.82;;;9.70;99.90;;;;;;4117118;28;20407;-80
2023/12/07 09:59:58;;;;;;;12.98;6.22;;;9.40;99.90;;;;;;4117265;28;20424;-80
2023/12/07 10:02:00;;;;;;;8.75;5.07;;;9.40;99.90;;;;;;4117329;28;20050;-81
2023/12/07 10:04:22;;;;;;;11.18;6.15;;;8.90;99.90;;;;;;4117030;28;20085;-80
2023/12/07 10:06:23;;;;;;;11.82;6.30;;;8.70;99.90;;;;;;4116978;28;20054;-81
2023/12/07 10:08:32;;;;;;;12.18;5.65;;;9.40;99.90;;;;;;4116688;28;20043;-80
2023/12/07 10:10:32;;;;;;;11.05;5.97;;;8.30;99.90;;;;;;4116521;28;20046;-80
2023/12/07 10:12:34;;;;;;;12.13;6.28;;;8.20;99.90;;;;;;4116794;28;20109;-80
2023/12/07 10:14:35;;;;;;;12.52;6.75;;;8.20;99.90;;;;;;4116327;28;20055;-81
2023/12/07 10:16:37;;;;;;;12.18;6.82;;;8.10;99.90;;;;;;4116306;28;20051;-80
2023/12/07 10:18:40;;;;;;;14.07;7.15;;;8.00;99.90;;;;;;4117843;28;20456;-80
2023/12/07 10:20:45;;;;;;;14.57;7.75;;;7.90;99.90;;;;;;4118095;28;20062;-80
2023/12/07 10:22:46;;;;;;;12.85;7.00;;;8.60;99.90;;;;;;4117774;28;20061;-80
2023/12/07 10:24:48;;;;;;;15.18;7.55;;;8.40;99.90;;;;;;4116838;28;20034;-79
2023/12/07 10:26:50;;;;;;;14.85;7.50;;;7.80;99.90;;;;;;4117373;28;20092;-81
2023/12/07 10:28:53;;;;;;;13.60;7.45;;;8.60;99.90;;;;;;4123007;28;20141;-81
2023/12/07 10:30:54;;;;;;;15.63;8.43;;;8.60;99.90;;;;;;4117287;28;20042;-81
2023/12/07 10:32:55;;;;;;;13.63;7.35;;;8.10;99.90;;;;;;4117441;28;20518;-81
2023/12/07 10:34:58;;;;;;;15.05;7.97;;;7.70;99.90;;;;;;4115970;28;20043;-81
2023/12/07 10:36:59;;;;;;;15.75;8.50;;;7.70;99.90;;;;;;4117053;28;20085;-80